KCTY/CTY METAR and TAF weather

Enter ICAO airport designator
Station Type Date Time Source
KCTY METAR 2022/06/29 01:15 UTC NOAA

KCTY 290115Z AUTO 11008G20KT 7SM TSRA SCT019 BKN048 OVC120 23/22 A3013 RMK AO2 LTG DSNT ALQDS P0001 T02290217


Station Type Date Time Source
KCTY Decoded METAR 2022/06/29 01:15 UTC NOAA

CROSS CITY AIRPORT, FL, United States (KCTY) 29-38N 083-06W 12M
Jun 28, 2022 - 09:15 PM EDT / 2022.06.29 0115 UTC
Wind: from the ESE (110 degrees) at 9 MPH (8 KT) gusting to 23 MPH (20 KT):0
Visibility: 7 mile(s):0
Sky conditions: overcast
Weather: rain with thunder; Lightning observed
Precipitation last hour: 0.01 inches
Temperature: 73.2 F (22.9 C)
Dew Point: 71.1 F (21.7 C)
Relative Humidity: 92%
Pressure (altimeter): 30.13 in. Hg (1020 hPa)
ob: KCTY 290115Z AUTO 11008G20KT 7SM TSRA SCT019 BKN048 OVC120 23/22 A3013 RMK AO2 LTG DSNT ALQDS P0001 T02290217
cycle: 1

Station Type Date Time Source
KCTY TAF UTC NOAA

Error!

Example: see airport list